sensor_id;sensor_type;location;lat;lon;timestamp;temperature;humidity
69436;SHT31;56625;54.322;18.582;2023-05-10T00:00:13;9.04;51.59
69436;SHT31;56625;54.322;18.582;2023-05-10T00:03:02;8.97;51.71
69436;SHT31;56625;54.322;18.582;2023-05-10T00:05:32;8.91;51.91
69436;SHT31;56625;54.322;18.582;2023-05-10T00:08:00;8.86;52.34
69436;SHT31;56625;54.322;18.582;2023-05-10T00:10:27;8.83;52.54
69436;SHT31;56625;54.322;18.582;2023-05-10T00:12:55;8.79;52.67
69436;SHT31;56625;54.322;18.582;2023-05-10T00:15:23;8.76;52.74
69436;SHT31;56625;54.322;18.582;2023-05-10T00:17:51;8.74;52.88
69436;SHT31;56625;54.322;18.582;2023-05-10T00:20:19;8.70;53.25
69436;SHT31;56625;54.322;18.582;2023-05-10T00:22:47;8.67;53.21
69436;SHT31;56625;54.322;18.582;2023-05-10T00:25:15;8.64;53.42
69436;SHT31;56625;54.322;18.582;2023-05-10T00:27:42;8.60;53.67
69436;SHT31;56625;54.322;18.582;2023-05-10T00:30:10;8.57;54.05
69436;SHT31;56625;54.322;18.582;2023-05-10T00:32:38;8.54;54.40
69436;SHT31;56625;54.322;18.582;2023-05-10T00:35:06;8.51;55.29
69436;SHT31;56625;54.322;18.582;2023-05-10T00:37:35;8.46;56.11
69436;SHT31;56625;54.322;18.582;2023-05-10T00:40:03;8.41;56.92
69436;SHT31;56625;54.322;18.582;2023-05-10T00:42:32;8.34;57.33
69436;SHT31;56625;54.322;18.582;2023-05-10T00:45:00;8.28;58.24
69436;SHT31;56625;54.322;18.582;2023-05-10T00:47:28;8.22;58.79
69436;SHT31;56625;54.322;18.582;2023-05-10T00:49:57;8.14;59.22
69436;SHT31;56625;54.322;18.582;2023-05-10T00:52:25;8.08;59.70
69436;SHT31;56625;54.322;18.582;2023-05-10T00:54:55;8.01;60.18
69436;SHT31;56625;54.322;18.582;2023-05-10T00:57:24;7.96;60.55
69436;SHT31;56625;54.322;18.582;2023-05-10T00:59:52;7.88;60.77
69436;SHT31;56625;54.322;18.582;2023-05-10T01:02:21;7.82;61.33
69436;SHT31;56625;54.322;18.582;2023-05-10T01:04:49;7.74;61.54
69436;SHT31;56625;54.322;18.582;2023-05-10T01:07:17;7.67;61.81
69436;SHT31;56625;54.322;18.582;2023-05-10T01:09:45;7.61;62.19
69436;SHT31;56625;54.322;18.582;2023-05-10T01:12:13;7.58;62.34
69436;SHT31;56625;54.322;18.582;2023-05-10T01:14:42;7.55;62.49
69436;SHT31;56625;54.322;18.582;2023-05-10T01:17:10;7.53;62.58
69436;SHT31;56625;54.322;18.582;2023-05-10T01:19:40;7.48;62.67
69436;SHT31;56625;54.322;18.582;2023-05-10T01:33:29;7.17;62.58
69436;SHT31;56625;54.322;18.582;2023-05-10T01:47:45;6.82;64.49
69436;SHT31;56625;54.322;18.582;2023-05-10T01:50:24;6.80;64.59
69436;SHT31;56625;54.322;18.582;2023-05-10T01:52:58;6.80;64.50
69436;SHT31;56625;54.322;18.582;2023-05-10T01:55:29;6.77;64.64
69436;SHT31;56625;54.322;18.582;2023-05-10T01:58:07;6.76;64.72
69436;SHT31;56625;54.322;18.582;2023-05-10T02:00:42;6.68;64.76
69436;SHT31;56625;54.322;18.582;2023-05-10T02:03:13;6.61;64.86
69436;SHT31;56625;54.322;18.582;2023-05-10T02:05:43;6.57;64.93
69436;SHT31;56625;54.322;18.582;2023-05-10T02:08:15;6.51;65.00
69436;SHT31;56625;54.322;18.582;2023-05-10T02:10:46;6.40;65.35
69436;SHT31;56625;54.322;18.582;2023-05-10T02:13:18;6.33;65.85
69436;SHT31;56625;54.322;18.582;2023-05-10T02:15:48;6.29;66.22
69436;SHT31;56625;54.322;18.582;2023-05-10T02:18:18;6.29;66.66
69436;SHT31;56625;54.322;18.582;2023-05-10T02:20:46;6.30;66.63
69436;SHT31;56625;54.322;18.582;2023-05-10T02:23:15;6.28;66.46
69436;SHT31;56625;54.322;18.582;2023-05-10T02:25:45;6.24;66.72
69436;SHT31;56625;54.322;18.582;2023-05-10T02:28:17;6.25;66.88
69436;SHT31;56625;54.322;18.582;2023-05-10T02:30:47;6.24;66.80
69436;SHT31;56625;54.322;18.582;2023-05-10T02:33:15;6.22;66.71
69436;SHT31;56625;54.322;18.582;2023-05-10T02:35:46;6.18;66.80
69436;SHT31;56625;54.322;18.582;2023-05-10T02:38:15;6.14;67.14
69436;SHT31;56625;54.322;18.582;2023-05-10T02:40:46;6.14;67.52
69436;SHT31;56625;54.322;18.582;2023-05-10T02:43:15;6.11;67.53
69436;SHT31;56625;54.322;18.582;2023-05-10T02:45:47;6.08;67.58
69436;SHT31;56625;54.322;18.582;2023-05-10T02:48:15;6.07;67.92
69436;SHT31;56625;54.322;18.582;2023-05-10T02:50:44;6.08;68.05
69436;SHT31;56625;54.322;18.582;2023-05-10T02:53:20;6.05;67.93
69436;SHT31;56625;54.322;18.582;2023-05-10T02:55:58;5.99;68.07
69436;SHT31;56625;54.322;18.582;2023-05-10T02:58:34;5.97;68.10
69436;SHT31;56625;54.322;18.582;2023-05-10T03:01:03;5.92;68.03
69436;SHT31;56625;54.322;18.582;2023-05-10T03:03:31;5.87;67.93
69436;SHT31;56625;54.322;18.582;2023-05-10T03:05:59;5.80;68.05
69436;SHT31;56625;54.322;18.582;2023-05-10T03:08:27;5.80;68.20
69436;SHT31;56625;54.322;18.582;2023-05-10T03:11:04;5.78;68.18
69436;SHT31;56625;54.322;18.582;2023-05-10T03:16:42;5.73;68.26
69436;SHT31;56625;54.322;18.582;2023-05-10T03:19:24;5.71;68.43
69436;SHT31;56625;54.322;18.582;2023-05-10T03:22:03;5.70;68.60
69436;SHT31;56625;54.322;18.582;2023-05-10T03:24:39;5.69;68.75
69436;SHT31;56625;54.322;18.582;2023-05-10T03:27:09;5.68;68.80
69436;SHT31;56625;54.322;18.582;2023-05-10T03:29:38;5.69;68.83
69436;SHT31;56625;54.322;18.582;2023-05-10T03:32:07;5.70;68.90
69436;SHT31;56625;54.322;18.582;2023-05-10T03:34:36;5.77;68.87
69436;SHT31;56625;54.322;18.582;2023-05-10T03:37:10;5.95;68.74
69436;SHT31;56625;54.322;18.582;2023-05-10T03:39:38;6.23;68.50
69436;SHT31;56625;54.322;18.582;2023-05-10T03:42:06;6.53;68.10
69436;SHT31;56625;54.322;18.582;2023-05-10T03:44:34;6.94;67.51
69436;SHT31;56625;54.322;18.582;2023-05-10T03:47:02;7.42;66.83
69436;SHT31;56625;54.322;18.582;2023-05-10T03:49:30;7.94;66.11
69436;SHT31;56625;54.322;18.582;2023-05-10T03:51:57;8.45;64.92
69436;SHT31;56625;54.322;18.582;2023-05-10T03:54:25;8.99;63.44
69436;SHT31;56625;54.322;18.582;2023-05-10T03:56:53;9.62;61.48
69436;SHT31;56625;54.322;18.582;2023-05-10T03:59:21;10.14;60.12
69436;SHT31;56625;54.322;18.582;2023-05-10T04:01:49;10.67;58.25
69436;SHT31;56625;54.322;18.582;2023-05-10T04:04:17;11.11;56.43
69436;SHT31;56625;54.322;18.582;2023-05-10T04:06:46;11.51;55.31
69436;SHT31;56625;54.322;18.582;2023-05-10T04:09:14;11.83;54.21
69436;SHT31;56625;54.322;18.582;2023-05-10T04:11:42;12.15;52.86
69436;SHT31;56625;54.322;18.582;2023-05-10T04:14:10;12.32;51.86
69436;SHT31;56625;54.322;18.582;2023-05-10T04:16:38;12.52;51.08
69436;SHT31;56625;54.322;18.582;2023-05-10T04:19:06;12.76;50.22
69436;SHT31;56625;54.322;18.582;2023-05-10T04:21:34;12.96;49.42
69436;SHT31;56625;54.322;18.582;2023-05-10T04:24:03;13.05;48.74
69436;SHT31;56625;54.322;18.582;2023-05-10T04:26:31;13.19;48.04
69436;SHT31;56625;54.322;18.582;2023-05-10T04:28:59;13.35;47.18
69436;SHT31;56625;54.322;18.582;2023-05-10T04:31:27;13.33;45.94
69436;SHT31;56625;54.322;18.582;2023-05-10T04:33:55;13.15;46.32
69436;SHT31;56625;54.322;18.582;2023-05-10T04:36:23;12.93;46.26
69436;SHT31;56625;54.322;18.582;2023-05-10T04:38:51;12.86;46.60
69436;SHT31;56625;54.322;18.582;2023-05-10T04:41:20;12.88;46.50
69436;SHT31;56625;54.322;18.582;2023-05-10T04:43:48;12.86;46.27
69436;SHT31;56625;54.322;18.582;2023-05-10T04:46:16;12.74;45.32
69436;SHT31;56625;54.322;18.582;2023-05-10T04:48:44;12.67;45.64
69436;SHT31;56625;54.322;18.582;2023-05-10T04:51:12;12.56;45.43
69436;SHT31;56625;54.322;18.582;2023-05-10T04:53:40;12.46;45.44
69436;SHT31;56625;54.322;18.582;2023-05-10T04:56:17;12.41;45.95
69436;SHT31;56625;54.322;18.582;2023-05-10T04:58:45;12.36;45.81
69436;SHT31;56625;54.322;18.582;2023-05-10T05:01:13;12.40;45.83
69436;SHT31;56625;54.322;18.582;2023-05-10T05:03:41;12.43;45.79
69436;SHT31;56625;54.322;18.582;2023-05-10T05:06:10;12.46;45.54
69436;SHT31;56625;54.322;18.582;2023-05-10T05:08:38;12.44;45.46
69436;SHT31;56625;54.322;18.582;2023-05-10T05:11:06;12.43;45.57
69436;SHT31;56625;54.322;18.582;2023-05-10T05:13:34;12.41;45.67
69436;SHT31;56625;54.322;18.582;2023-05-10T05:16:02;12.40;45.88
69436;SHT31;56625;54.322;18.582;2023-05-10T05:18:30;12.34;45.95
69436;SHT31;56625;54.322;18.582;2023-05-10T05:20:58;12.39;46.08
69436;SHT31;56625;54.322;18.582;2023-05-10T05:23:26;12.44;46.16
69436;SHT31;56625;54.322;18.582;2023-05-10T05:25:54;12.54;45.83
69436;SHT31;56625;54.322;18.582;2023-05-10T05:28:22;12.47;45.73
69436;SHT31;56625;54.322;18.582;2023-05-10T05:30:50;12.46;46.04
69436;SHT31;56625;54.322;18.582;2023-05-10T05:33:18;12.57;45.42
69436;SHT31;56625;54.322;18.582;2023-05-10T05:35:46;12.58;45.34
69436;SHT31;56625;54.322;18.582;2023-05-10T05:38:18;12.53;44.90
69436;SHT31;56625;54.322;18.582;2023-05-10T05:40:46;12.44;45.39
69436;SHT31;56625;54.322;18.582;2023-05-10T05:43:14;12.42;45.64
69436;SHT31;56625;54.322;18.582;2023-05-10T05:45:42;12.41;45.47
69436;SHT31;56625;54.322;18.582;2023-05-10T05:48:10;12.33;45.66
69436;SHT31;56625;54.322;18.582;2023-05-10T05:50:37;12.34;45.63
69436;SHT31;56625;54.322;18.582;2023-05-10T05:53:05;12.40;45.74
69436;SHT31;56625;54.322;18.582;2023-05-10T05:55:33;12.43;45.73
69436;SHT31;56625;54.322;18.582;2023-05-10T05:58:01;12.46;45.77
69436;SHT31;56625;54.322;18.582;2023-05-10T06:00:30;12.48;45.88
69436;SHT31;56625;54.322;18.582;2023-05-10T06:02:57;12.54;45.98
69436;SHT31;56625;54.322;18.582;2023-05-10T06:05:26;12.63;45.98
69436;SHT31;56625;54.322;18.582;2023-05-10T06:07:53;12.69;45.89
69436;SHT31;56625;54.322;18.582;2023-05-10T06:10:22;12.77;46.07
69436;SHT31;56625;54.322;18.582;2023-05-10T06:12:50;12.82;45.62
69436;SHT31;56625;54.322;18.582;2023-05-10T06:15:18;12.76;45.44
69436;SHT31;56625;54.322;18.582;2023-05-10T06:17:45;12.79;45.63
69436;SHT31;56625;54.322;18.582;2023-05-10T06:20:15;12.89;45.98
69436;SHT31;56625;54.322;18.582;2023-05-10T06:22:44;13.04;45.84
69436;SHT31;56625;54.322;18.582;2023-05-10T06:25:12;13.12;45.94
69436;SHT31;56625;54.322;18.582;2023-05-10T06:27:40;13.26;45.92
69436;SHT31;56625;54.322;18.582;2023-05-10T06:30:08;13.33;45.50
69436;SHT31;56625;54.322;18.582;2023-05-10T06:32:40;13.42;45.42
69436;SHT31;56625;54.322;18.582;2023-05-10T06:35:08;13.59;45.51
69436;SHT31;56625;54.322;18.582;2023-05-10T06:37:37;13.66;45.16
69436;SHT31;56625;54.322;18.582;2023-05-10T06:40:05;13.79;45.18
69436;SHT31;56625;54.322;18.582;2023-05-10T06:42:34;13.88;44.21
69436;SHT31;56625;54.322;18.582;2023-05-10T06:45:02;13.93;43.78
69436;SHT31;56625;54.322;18.582;2023-05-10T06:47:30;13.97;43.55
69436;SHT31;56625;54.322;18.582;2023-05-10T06:49:59;14.07;43.47
69436;SHT31;56625;54.322;18.582;2023-05-10T06:52:27;14.16;43.27
69436;SHT31;56625;54.322;18.582;2023-05-10T06:54:55;14.25;42.97
69436;SHT31;56625;54.322;18.582;2023-05-10T06:57:23;14.39;42.89
69436;SHT31;56625;54.322;18.582;2023-05-10T06:59:56;14.60;42.44
69436;SHT31;56625;54.322;18.582;2023-05-10T07:02:26;14.80;41.96
69436;SHT31;56625;54.322;18.582;2023-05-10T07:04:55;14.90;40.62
69436;SHT31;56625;54.322;18.582;2023-05-10T07:07:24;14.98;41.32
69436;SHT31;56625;54.322;18.582;2023-05-10T07:09:51;15.15;41.33
69436;SHT31;56625;54.322;18.582;2023-05-10T07:12:19;15.23;39.39
69436;SHT31;56625;54.322;18.582;2023-05-10T07:14:47;15.27;39.05
69436;SHT31;56625;54.322;18.582;2023-05-10T07:17:15;15.35;39.56
69436;SHT31;56625;54.322;18.582;2023-05-10T07:19:43;15.49;39.88
69436;SHT31;56625;54.322;18.582;2023-05-10T07:22:11;15.60;39.33
69436;SHT31;56625;54.322;18.582;2023-05-10T07:24:39;15.75;39.13
69436;SHT31;56625;54.322;18.582;2023-05-10T07:27:07;15.88;38.73
69436;SHT31;56625;54.322;18.582;2023-05-10T07:29:36;16.00;38.28
69436;SHT31;56625;54.322;18.582;2023-05-10T07:32:05;16.09;37.93
69436;SHT31;56625;54.322;18.582;2023-05-10T07:34:33;16.19;37.15
69436;SHT31;56625;54.322;18.582;2023-05-10T07:37:01;16.25;36.79
69436;SHT31;56625;54.322;18.582;2023-05-10T07:39:29;16.32;36.73
69436;SHT31;56625;54.322;18.582;2023-05-10T07:41:57;16.44;36.21
69436;SHT31;56625;54.322;18.582;2023-05-10T07:44:25;16.60;36.28
69436;SHT31;56625;54.322;18.582;2023-05-10T07:46:53;16.77;35.37
69436;SHT31;56625;54.322;18.582;2023-05-10T07:49:21;16.87;34.21
69436;SHT31;56625;54.322;18.582;2023-05-10T07:51:51;16.89;33.20
69436;SHT31;56625;54.322;18.582;2023-05-10T07:54:19;16.97;33.61
69436;SHT31;56625;54.322;18.582;2023-05-10T07:56:47;17.09;33.84
69436;SHT31;56625;54.322;18.582;2023-05-10T07:59:16;17.20;33.99
69436;SHT31;56625;54.322;18.582;2023-05-10T08:01:44;17.26;33.21
69436;SHT31;56625;54.322;18.582;2023-05-10T08:04:12;17.26;32.30
69436;SHT31;56625;54.322;18.582;2023-05-10T08:06:40;17.27;31.88
69436;SHT31;56625;54.322;18.582;2023-05-10T08:09:08;17.23;32.04
69436;SHT31;56625;54.322;18.582;2023-05-10T08:11:37;17.26;31.38
69436;SHT31;56625;54.322;18.582;2023-05-10T08:14:04;17.32;31.43
69436;SHT31;56625;54.322;18.582;2023-05-10T08:16:32;17.42;31.66
69436;SHT31;56625;54.322;18.582;2023-05-10T08:19:00;17.55;31.94
69436;SHT31;56625;54.322;18.582;2023-05-10T08:21:29;17.71;31.28
69436;SHT31;56625;54.322;18.582;2023-05-10T08:23:56;17.82;30.93
69436;SHT31;56625;54.322;18.582;2023-05-10T08:26:25;17.99;30.73
69436;SHT31;56625;54.322;18.582;2023-05-10T08:28:53;18.07;30.92
69436;SHT31;56625;54.322;18.582;2023-05-10T08:31:21;18.16;30.17
69436;SHT31;56625;54.322;18.582;2023-05-10T08:33:49;18.16;29.88
69436;SHT31;56625;54.322;18.582;2023-05-10T08:36:18;18.11;30.02
69436;SHT31;56625;54.322;18.582;2023-05-10T08:38:51;18.08;29.88
69436;SHT31;56625;54.322;18.582;2023-05-10T08:41:20;18.13;29.77
69436;SHT31;56625;54.322;18.582;2023-05-10T08:43:49;18.25;29.68
69436;SHT31;56625;54.322;18.582;2023-05-10T08:46:19;18.39;29.31
69436;SHT31;56625;54.322;18.582;2023-05-10T08:48:49;18.42;28.57
69436;SHT31;56625;54.322;18.582;2023-05-10T08:51:22;18.47;28.45
69436;SHT31;56625;54.322;18.582;2023-05-10T08:53:54;18.42;27.92
69436;SHT31;56625;54.322;18.582;2023-05-10T08:56:23;18.47;28.58
69436;SHT31;56625;54.322;18.582;2023-05-10T08:58:51;18.67;28.59
69436;SHT31;56625;54.322;18.582;2023-05-10T09:01:19;18.76;28.07
69436;SHT31;56625;54.322;18.582;2023-05-10T09:03:49;18.77;27.87
69436;SHT31;56625;54.322;18.582;2023-05-10T09:06:18;18.75;26.95
69436;SHT31;56625;54.322;18.582;2023-05-10T09:08:46;18.66;26.78
69436;SHT31;56625;54.322;18.582;2023-05-10T09:11:15;18.48;26.79
69436;SHT31;56625;54.322;18.582;2023-05-10T09:13:44;18.41;27.36
69436;SHT31;56625;54.322;18.582;2023-05-10T09:16:15;18.56;27.28
69436;SHT31;56625;54.322;18.582;2023-05-10T09:18:48;18.67;26.94
69436;SHT31;56625;54.322;18.582;2023-05-10T09:21:18;18.79;27.08
69436;SHT31;56625;54.322;18.582;2023-05-10T09:23:48;18.80;26.57
69436;SHT31;56625;54.322;18.582;2023-05-10T09:26:17;18.75;26.88
69436;SHT31;56625;54.322;18.582;2023-05-10T09:28:51;18.81;26.93
69436;SHT31;56625;54.322;18.582;2023-05-10T09:31:25;18.87;26.49
69436;SHT31;56625;54.322;18.582;2023-05-10T09:34:18;18.79;26.22
69436;SHT31;56625;54.322;18.582;2023-05-10T09:36:50;18.72;26.49
69436;SHT31;56625;54.322;18.582;2023-05-10T09:39:30;18.81;26.57
69436;SHT31;56625;54.322;18.582;2023-05-10T09:42:04;18.80;26.22
69436;SHT31;56625;54.322;18.582;2023-05-10T09:44:36;18.80;26.42
69436;SHT31;56625;54.322;18.582;2023-05-10T09:47:05;18.74;26.69
69436;SHT31;56625;54.322;18.582;2023-05-10T09:49:33;18.81;27.29
69436;SHT31;56625;54.322;18.582;2023-05-10T09:52:06;18.93;26.89
69436;SHT31;56625;54.322;18.582;2023-05-10T09:54:35;18.93;26.48
69436;SHT31;56625;54.322;18.582;2023-05-10T09:57:03;19.01;26.83
69436;SHT31;56625;54.322;18.582;2023-05-10T09:59:32;19.12;26.45
69436;SHT31;56625;54.322;18.582;2023-05-10T10:02:02;19.21;26.67
69436;SHT31;56625;54.322;18.582;2023-05-10T10:04:32;19.20;26.52
69436;SHT31;56625;54.322;18.582;2023-05-10T10:07:06;19.14;26.42
69436;SHT31;56625;54.322;18.582;2023-05-10T10:09:35;19.30;26.73
69436;SHT31;56625;54.322;18.582;2023-05-10T10:12:03;19.39;25.99
69436;SHT31;56625;54.322;18.582;2023-05-10T10:14:32;19.47;26.27
69436;SHT31;56625;54.322;18.582;2023-05-10T10:17:01;19.54;26.00
69436;SHT31;56625;54.322;18.582;2023-05-10T10:19:35;19.61;26.45
69436;SHT31;56625;54.322;18.582;2023-05-10T10:22:04;19.82;26.48
69436;SHT31;56625;54.322;18.582;2023-05-10T10:24:33;19.97;26.38
69436;SHT31;56625;54.322;18.582;2023-05-10T10:27:04;20.09;25.81
69436;SHT31;56625;54.322;18.582;2023-05-10T10:30:02;20.00;24.74
69436;SHT31;56625;54.322;18.582;2023-05-10T10:36:01;19.85;24.57
69436;SHT31;56625;54.322;18.582;2023-05-10T10:41:31;19.78;24.93
69436;SHT31;56625;54.322;18.582;2023-05-10T10:55:01;20.09;24.70
69436;SHT31;56625;54.322;18.582;2023-05-10T11:02:47;20.30;23.96
69436;SHT31;56625;54.322;18.582;2023-05-10T11:05:34;20.28;24.43
69436;SHT31;56625;54.322;18.582;2023-05-10T11:08:12;20.42;24.57
69436;SHT31;56625;54.322;18.582;2023-05-10T11:11:04;20.62;24.93
69436;SHT31;56625;54.322;18.582;2023-05-10T11:16:13;20.80;24.51
69436;SHT31;56625;54.322;18.582;2023-05-10T11:18:51;20.75;23.53
69436;SHT31;56625;54.322;18.582;2023-05-10T11:21:30;20.57;24.10
69436;SHT31;56625;54.322;18.582;2023-05-10T11:24:00;20.67;24.55
69436;SHT31;56625;54.322;18.582;2023-05-10T11:26:34;20.80;24.56
69436;SHT31;56625;54.322;18.582;2023-05-10T11:29:03;20.77;24.16
69436;SHT31;56625;54.322;18.582;2023-05-10T11:31:32;20.70;24.27
69436;SHT31;56625;54.322;18.582;2023-05-10T11:34:00;20.73;24.52
69436;SHT31;56625;54.322;18.582;2023-05-10T11:36:35;20.76;23.67
69436;SHT31;56625;54.322;18.582;2023-05-10T11:39:04;20.67;22.70
69436;SHT31;56625;54.322;18.582;2023-05-10T11:41:33;20.56;23.35
69436;SHT31;56625;54.322;18.582;2023-05-10T11:44:01;20.67;23.81
69436;SHT31;56625;54.322;18.582;2023-05-10T11:46:29;20.72;23.72
69436;SHT31;56625;54.322;18.582;2023-05-10T11:48:58;20.80;24.33
69436;SHT31;56625;54.322;18.582;2023-05-10T11:51:29;20.82;24.27
69436;SHT31;56625;54.322;18.582;2023-05-10T11:54:07;20.81;24.57
69436;SHT31;56625;54.322;18.582;2023-05-10T11:56:37;20.79;24.98
69436;SHT31;56625;54.322;18.582;2023-05-10T11:59:07;20.86;24.93
69436;SHT31;56625;54.322;18.582;2023-05-10T12:01:35;20.73;24.85
69436;SHT31;56625;54.322;18.582;2023-05-10T12:04:04;20.67;24.87
69436;SHT31;56625;54.322;18.582;2023-05-10T12:06:32;20.64;25.03
69436;SHT31;56625;54.322;18.582;2023-05-10T12:09:08;20.65;24.85
69436;SHT31;56625;54.322;18.582;2023-05-10T12:11:37;20.63;24.15
69436;SHT31;56625;54.322;18.582;2023-05-10T12:14:11;20.48;23.85
69436;SHT31;56625;54.322;18.582;2023-05-10T12:16:38;20.38;24.30
69436;SHT31;56625;54.322;18.582;2023-05-10T12:19:07;20.38;24.83
69436;SHT31;56625;54.322;18.582;2023-05-10T12:21:35;20.52;24.80
69436;SHT31;56625;54.322;18.582;2023-05-10T12:24:03;20.62;24.84
69436;SHT31;56625;54.322;18.582;2023-05-10T12:26:32;20.82;24.83
69436;SHT31;56625;54.322;18.582;2023-05-10T12:29:15;20.79;24.45
69436;SHT31;56625;54.322;18.582;2023-05-10T12:31:52;20.80;23.15
69436;SHT31;56625;54.322;18.582;2023-05-10T12:34:26;20.74;23.42
69436;SHT31;56625;54.322;18.582;2023-05-10T12:36:57;20.68;23.83
69436;SHT31;56625;54.322;18.582;2023-05-10T12:39:26;20.63;24.42
69436;SHT31;56625;54.322;18.582;2023-05-10T12:42:04;20.69;24.57
69436;SHT31;56625;54.322;18.582;2023-05-10T12:44:32;20.77;23.90
69436;SHT31;56625;54.322;18.582;2023-05-10T12:47:00;20.71;23.38
69436;SHT31;56625;54.322;18.582;2023-05-10T12:49:28;20.67;23.59
69436;SHT31;56625;54.322;18.582;2023-05-10T12:51:56;20.65;24.16
69436;SHT31;56625;54.322;18.582;2023-05-10T12:54:24;20.73;24.26
69436;SHT31;56625;54.322;18.582;2023-05-10T12:56:52;20.80;24.20
69436;SHT31;56625;54.322;18.582;2023-05-10T12:59:20;20.87;24.01
69436;SHT31;56625;54.322;18.582;2023-05-10T13:01:47;20.88;23.83
69436;SHT31;56625;54.322;18.582;2023-05-10T13:04:15;20.83;23.82
69436;SHT31;56625;54.322;18.582;2023-05-10T13:06:43;20.78;23.74
69436;SHT31;56625;54.322;18.582;2023-05-10T13:09:11;20.71;23.89
69436;SHT31;56625;54.322;18.582;2023-05-10T13:11:39;20.69;23.88
69436;SHT31;56625;54.322;18.582;2023-05-10T13:14:07;20.75;24.30
69436;SHT31;56625;54.322;18.582;2023-05-10T13:16:35;20.82;24.02
69436;SHT31;56625;54.322;18.582;2023-05-10T13:19:03;20.76;23.43
69436;SHT31;56625;54.322;18.582;2023-05-10T13:21:31;20.69;23.50
69436;SHT31;56625;54.322;18.582;2023-05-10T13:23:59;20.64;23.42
69436;SHT31;56625;54.322;18.582;2023-05-10T13:26:27;20.67;23.89
69436;SHT31;56625;54.322;18.582;2023-05-10T13:28:57;20.71;23.72
69436;SHT31;56625;54.322;18.582;2023-05-10T13:31:24;20.71;23.55
69436;SHT31;56625;54.322;18.582;2023-05-10T13:33:52;20.64;23.88
69436;SHT31;56625;54.322;18.582;2023-05-10T13:36:20;20.66;24.04
69436;SHT31;56625;54.322;18.582;2023-05-10T13:38:48;20.75;24.43
69436;SHT31;56625;54.322;18.582;2023-05-10T13:41:16;20.71;24.36
69436;SHT31;56625;54.322;18.582;2023-05-10T13:43:44;20.69;24.47
69436;SHT31;56625;54.322;18.582;2023-05-10T13:46:12;20.68;24.82
69436;SHT31;56625;54.322;18.582;2023-05-10T13:48:40;20.74;24.77
69436;SHT31;56625;54.322;18.582;2023-05-10T13:51:08;20.67;24.66
69436;SHT31;56625;54.322;18.582;2023-05-10T13:53:36;20.58;24.55
69436;SHT31;56625;54.322;18.582;2023-05-10T14:00:04;20.57;24.11
69436;SHT31;56625;54.322;18.582;2023-05-10T14:02:33;20.52;24.47
69436;SHT31;56625;54.322;18.582;2023-05-10T14:05:03;20.54;24.75
69436;SHT31;56625;54.322;18.582;2023-05-10T14:07:32;20.59;24.74
69436;SHT31;56625;54.322;18.582;2023-05-10T14:10:01;20.55;24.72
69436;SHT31;56625;54.322;18.582;2023-05-10T14:12:29;20.51;24.75
69436;SHT31;56625;54.322;18.582;2023-05-10T14:14:57;20.52;24.63
69436;SHT31;56625;54.322;18.582;2023-05-10T14:17:25;20.56;24.91
69436;SHT31;56625;54.322;18.582;2023-05-10T14:19:53;20.61;24.69
69436;SHT31;56625;54.322;18.582;2023-05-10T14:22:21;20.63;24.48
69436;SHT31;56625;54.322;18.582;2023-05-10T14:24:50;20.59;24.37
69436;SHT31;56625;54.322;18.582;2023-05-10T14:27:18;20.65;24.39
69436;SHT31;56625;54.322;18.582;2023-05-10T14:29:47;20.70;24.03
69436;SHT31;56625;54.322;18.582;2023-05-10T14:32:15;20.74;24.04
69436;SHT31;56625;54.322;18.582;2023-05-10T14:34:43;20.72;23.73
69436;SHT31;56625;54.322;18.582;2023-05-10T14:37:11;20.68;23.84
69436;SHT31;56625;54.322;18.582;2023-05-10T14:39:40;20.62;23.44
69436;SHT31;56625;54.322;18.582;2023-05-10T14:42:09;20.51;23.47
69436;SHT31;56625;54.322;18.582;2023-05-10T14:44:40;20.46;23.90
69436;SHT31;56625;54.322;18.582;2023-05-10T14:47:08;20.42;24.09
69436;SHT31;56625;54.322;18.582;2023-05-10T14:49:38;20.37;24.11
69436;SHT31;56625;54.322;18.582;2023-05-10T14:56:07;20.23;24.10
69436;SHT31;56625;54.322;18.582;2023-05-10T14:58:35;20.18;24.05
69436;SHT31;56625;54.322;18.582;2023-05-10T15:01:04;20.15;24.30
69436;SHT31;56625;54.322;18.582;2023-05-10T15:03:33;20.15;24.51
69436;SHT31;56625;54.322;18.582;2023-05-10T15:06:03;20.19;24.80
69436;SHT31;56625;54.322;18.582;2023-05-10T15:08:31;20.22;24.58
69436;SHT31;56625;54.322;18.582;2023-05-10T15:10:59;20.27;24.75
69436;SHT31;56625;54.322;18.582;2023-05-10T15:13:27;20.23;24.58
69436;SHT31;56625;54.322;18.582;2023-05-10T15:15:55;20.19;24.83
69436;SHT31;56625;54.322;18.582;2023-05-10T15:18:23;20.22;25.18
69436;SHT31;56625;54.322;18.582;2023-05-10T15:20:51;20.25;24.76
69436;SHT31;56625;54.322;18.582;2023-05-10T15:23:19;20.22;24.79
69436;SHT31;56625;54.322;18.582;2023-05-10T15:25:47;20.14;25.08
69436;SHT31;56625;54.322;18.582;2023-05-10T15:28:17;20.09;25.47
69436;SHT31;56625;54.322;18.582;2023-05-10T15:30:44;20.12;25.38
69436;SHT31;56625;54.322;18.582;2023-05-10T15:33:12;20.02;24.70
69436;SHT31;56625;54.322;18.582;2023-05-10T15:35:40;19.94;25.06
69436;SHT31;56625;54.322;18.582;2023-05-10T15:38:09;19.99;25.40
69436;SHT31;56625;54.322;18.582;2023-05-10T15:40:37;20.00;25.30
69436;SHT31;56625;54.322;18.582;2023-05-10T15:43:05;20.04;25.33
69436;SHT31;56625;54.322;18.582;2023-05-10T15:45:33;20.05;25.12
69436;SHT31;56625;54.322;18.582;2023-05-10T15:48:04;20.01;24.73
69436;SHT31;56625;54.322;18.582;2023-05-10T15:50:34;19.99;25.06
69436;SHT31;56625;54.322;18.582;2023-05-10T15:53:02;19.98;24.97
69436;SHT31;56625;54.322;18.582;2023-05-10T15:55:30;19.97;25.16
69436;SHT31;56625;54.322;18.582;2023-05-10T15:57:57;19.94;25.07
69436;SHT31;56625;54.322;18.582;2023-05-10T16:00:25;19.99;25.22
69436;SHT31;56625;54.322;18.582;2023-05-10T16:02:53;20.01;25.30
69436;SHT31;56625;54.322;18.582;2023-05-10T16:05:21;20.02;24.86
69436;SHT31;56625;54.322;18.582;2023-05-10T16:07:49;20.01;25.02
69436;SHT31;56625;54.322;18.582;2023-05-10T16:10:17;20.07;25.23
69436;SHT31;56625;54.322;18.582;2023-05-10T16:12:45;20.34;25.30
69436;SHT31;56625;54.322;18.582;2023-05-10T16:15:13;20.75;24.86
69436;SHT31;56625;54.322;18.582;2023-05-10T16:17:41;20.95;23.85
69436;SHT31;56625;54.322;18.582;2023-05-10T16:20:11;21.11;23.76
69436;SHT31;56625;54.322;18.582;2023-05-10T16:22:39;21.26;23.67
69436;SHT31;56625;54.322;18.582;2023-05-10T16:25:08;21.47;23.64
69436;SHT31;56625;54.322;18.582;2023-05-10T16:27:39;21.55;23.63
69436;SHT31;56625;54.322;18.582;2023-05-10T16:30:08;21.62;23.67
69436;SHT31;56625;54.322;18.582;2023-05-10T16:32:36;21.78;23.72